Time;durP1;ratioP1;P1;durP2;ratioP2;P2;SDS_P1;SDS_P2;PMS_P1;PMS_P2;Temp;Humidity;BMP_temperature;BMP_pressure;BME280_temperature;BME280_humidity;BME280_pressure;Samples;Min_cycle;Max_cycle;Signal;HPM_P1;HPM_P2
2022/12/07 00:01:11;;;;;;;10.00;6.15;;;;;;;;;;4995338;28;20034;-67
2022/12/07 00:03:37;;;;;;;;;;;;;;;;;;4995699;28;20111;-68
2022/12/07 00:06:04;;;;;;;16.10;9.20;;;;;;;;;;4995287;28;19914;-68
2022/12/07 00:08:31;;;;;;;10.02;5.90;;;;;;;;;;4993922;28;20136;-68
2022/12/07 00:11:01;;;;;;;9.88;5.47;;;;;;;;;;4995032;28;20026;-68
2022/12/07 00:13:27;;;;;;;11.20;5.85;;;;;;;;;;4995201;28;20030;-69
2022/12/07 00:15:52;;;;;;;9.18;4.82;;;;;;;;;;4995107;28;20018;-68
2022/12/07 00:18:18;;;;;;;8.05;5.35;;;;;;;;;;4994945;28;20470;-69
2022/12/07 00:20:43;;;;;;;7.47;5.05;;;;;;;;;;4995025;28;20024;-68
2022/12/07 00:23:09;;;;;;;11.32;5.10;;;;;;;;;;4993474;28;20034;-68
2022/12/07 00:25:34;;;;;;;8.13;5.05;;;;;;;;;;4994784;28;20456;-69
2022/12/07 00:28:00;;;;;;;11.75;5.40;;;;;;;;;;5001993;28;20022;-69
2022/12/07 00:30:25;;;;;;;8.52;5.65;;;;;;;;;;5014338;28;20425;-68
2022/12/07 00:32:51;;;;;;;7.97;5.18;;;;;;;;;;5014069;28;20131;-68
2022/12/07 00:35:16;;;;;;;7.97;5.03;;;;;;;;;;5014355;28;20472;-67
2022/12/07 00:37:41;;;;;;;11.20;5.90;;;;;;;;;;5013791;28;20030;-68
2022/12/07 00:40:07;;;;;;;8.00;5.40;;;;;;;;;;5014234;28;20477;-68
2022/12/07 00:42:33;;;;;;;11.13;6.63;;;;;;;;;;5010371;28;20591;-68
2022/12/07 00:44:58;;;;;;;10.98;5.90;;;;;;;;;;5002917;28;20026;-68
2022/12/07 00:47:24;;;;;;;12.50;6.65;;;;;;;;;;5004823;28;20113;-68
2022/12/07 00:49:49;;;;;;;10.95;6.28;;;;;;;;;;5002908;28;20105;-67
2022/12/07 00:52:15;;;;;;;10.45;6.43;;;;;;;;;;5003314;28;20112;-67
2022/12/07 00:54:40;;;;;;;10.35;6.13;;;;;;;;;;4993698;28;20081;-67
2022/12/07 00:57:06;;;;;;;11.23;6.85;;;;;;;;;;4993272;28;20030;-68
2022/12/07 00:59:31;;;;;;;11.90;6.20;;;;;;;;;;4997642;28;20073;-68
2022/12/07 01:01:57;;;;;;;12.57;6.80;;;;;;;;;;4995407;28;20026;-68
2022/12/07 01:04:22;;;;;;;9.68;6.35;;;;;;;;;;4991875;28;20022;-67
2022/12/07 01:06:48;;;;;;;12.07;6.25;;;;;;;;;;4993810;28;20049;-68
2022/12/07 01:09:13;;;;;;;9.18;5.55;;;;;;;;;;4995960;28;20144;-67
2022/12/07 01:11:39;;;;;;;8.85;5.68;;;;;;;;;;4995019;28;20393;-68
2022/12/07 01:14:04;;;;;;;9.15;6.00;;;;;;;;;;4998163;28;20084;-67
2022/12/07 01:16:31;;;;;;;9.60;5.85;;;;;;;;;;4995443;28;20058;-68
2022/12/07 01:18:58;;;;;;;23.42;7.60;;;;;;;;;;4996513;28;20032;-68
2022/12/07 01:21:29;;;;;;;13.30;6.47;;;;;;;;;;4995073;28;20050;-68
2022/12/07 01:23:57;;;;;;;19.15;6.65;;;;;;;;;;4995069;28;20553;-67
2022/12/07 01:26:24;;;;;;;10.75;5.97;;;;;;;;;;4992012;28;20077;-68
2022/12/07 01:28:50;;;;;;;26.92;12.18;;;;;;;;;;4993701;28;20241;-68
2022/12/07 01:31:20;;;;;;;10.45;6.55;;;;;;;;;;4996055;28;20109;-68
2022/12/07 01:33:48;;;;;;;9.48;5.80;;;;;;;;;;4995681;28;20032;-68
2022/12/07 01:36:15;;;;;;;8.52;5.53;;;;;;;;;;4997891;28;20030;-68
2022/12/07 01:38:41;;;;;;;9.45;5.00;;;;;;;;;;4993941;28;20029;-68
2022/12/07 01:41:07;;;;;;;7.90;5.20;;;;;;;;;;4991224;28;20022;-68
2022/12/07 01:43:34;;;;;;;9.80;5.45;;;;;;;;;;4990988;28;20022;-68
2022/12/07 01:46:00;;;;;;;9.77;4.93;;;;;;;;;;4991170;28;20022;-68
2022/12/07 01:48:37;;;;;;;9.13;5.40;;;;;;;;;;4990991;28;20040;-67
2022/12/07 01:51:08;;;;;;;9.68;5.35;;;;;;;;;;4987707;28;20457;-68
2022/12/07 01:53:37;;;;;;;10.30;4.82;;;;;;;;;;4990709;28;20029;-68
2022/12/07 01:56:03;;;;;;;8.70;5.10;;;;;;;;;;4990890;28;20036;-68
2022/12/07 01:58:29;;;;;;;8.07;4.45;;;;;;;;;;4994714;28;20117;-69
2022/12/07 02:00:54;;;;;;;8.82;4.55;;;;;;;;;;4991003;28;20022;-69
2022/12/07 02:03:27;;;;;;;7.35;4.60;;;;;;;;;;4990576;28;20366;-68
2022/12/07 02:05:54;;;;;;;7.18;4.95;;;;;;;;;;4990684;28;20420;-68
2022/12/07 02:08:20;;;;;;;7.13;4.38;;;;;;;;;;4990603;28;20418;-69
2022/12/07 02:10:46;;;;;;;7.30;4.75;;;;;;;;;;4990819;28;20021;-68
2022/12/07 02:13:16;;;;;;;8.10;4.47;;;;;;;;;;4990400;28;20030;-69
2022/12/07 02:15:50;;;;;;;;;;;;;;;;;;4991145;28;20015;-69
2022/12/07 02:18:33;;;;;;;5.30;3.70;;;;;;;;;;4990565;28;19914;-68
2022/12/07 02:21:32;;;;;;;6.65;4.28;;;;;;;;;;4990192;28;20058;-69
2022/12/07 02:24:13;;;;;;;7.05;3.95;;;;;;;;;;4988860;28;20035;-69
2022/12/07 02:26:59;;;;;;;6.43;3.63;;;;;;;;;;4989946;28;20531;-69
2022/12/07 02:29:35;;;;;;;6.47;4.05;;;;;;;;;;4991564;28;20034;-69
2022/12/07 02:32:39;;;;;;;7.38;4.22;;;;;;;;;;4991815;28;20054;-69
2022/12/07 02:35:17;;;;;;;6.75;4.30;;;;;;;;;;4991923;28;20038;-69
2022/12/07 02:37:55;;;;;;;5.88;4.07;;;;;;;;;;4991880;28;20033;-69
2022/12/07 02:40:26;;;;;;;6.85;3.92;;;;;;;;;;4991737;28;20030;-68
2022/12/07 02:43:19;;;;;;;6.38;4.60;;;;;;;;;;4991760;28;20030;-68
2022/12/07 02:45:47;;;;;;;6.53;4.00;;;;;;;;;;4986119;28;20378;-68
2022/12/07 02:48:16;;;;;;;9.15;5.47;;;;;;;;;;4991430;28;20058;-69
2022/12/07 02:50:59;;;;;;;6.53;3.90;;;;;;;;;;4991768;28;20058;-68
2022/12/07 02:53:35;;;;;;;10.10;5.35;;;;;;;;;;4991661;28;20053;-68
2022/12/07 02:56:19;;;;;;;7.32;4.65;;;;;;;;;;4991868;28;20046;-69
2022/12/07 02:58:59;;;;;;;9.35;5.43;;;;;;;;;;4991664;28;20022;-69
2022/12/07 03:01:32;;;;;;;;;;;;;;;;;;4991889;28;20030;-69
2022/12/07 03:04:17;;;;;;;6.07;4.35;;;;;;;;;;4991214;28;19932;-69
2022/12/07 03:06:51;;;;;;;6.32;4.10;;;;;;;;;;4991175;28;20034;-69
2022/12/07 03:10:01;;;;;;;7.13;4.20;;;;;;;;;;4991661;28;20026;-69
2022/12/07 03:12:52;;;;;;;6.70;4.55;;;;;;;;;;4991025;28;20038;-69
2022/12/07 03:15:48;;;;;;;5.43;3.65;;;;;;;;;;4991656;28;20085;-69
2022/12/07 03:18:16;;;;;;;6.10;4.03;;;;;;;;;;4992251;28;20073;-68
2022/12/07 03:20:44;;;;;;;10.07;4.35;;;;;;;;;;4992642;28;20042;-68
2022/12/07 03:23:12;;;;;;;6.55;4.32;;;;;;;;;;4992672;28;20391;-68
2022/12/07 03:25:45;;;;;;;7.00;4.65;;;;;;;;;;4992477;28;20174;-68
2022/12/07 03:28:15;;;;;;;12.35;4.20;;;;;;;;;;5001158;28;20041;-68
2022/12/07 03:31:13;;;;;;;7.65;3.92;;;;;;;;;;4995849;28;20042;-68
2022/12/07 03:34:02;;;;;;;6.25;4.18;;;;;;;;;;5011886;28;20061;-68
2022/12/07 03:36:37;;;;;;;7.88;4.60;;;;;;;;;;5011964;28;20457;-68
2022/12/07 03:39:11;;;;;;;5.93;3.92;;;;;;;;;;5012099;28;20034;-68
2022/12/07 03:41:38;;;;;;;6.55;4.18;;;;;;;;;;5011920;28;20428;-68
2022/12/07 03:44:06;;;;;;;7.07;4.53;;;;;;;;;;5011737;28;20041;-68
2022/12/07 03:46:57;;;;;;;7.63;5.15;;;;;;;;;;4995117;28;20526;-68
2022/12/07 03:49:39;;;;;;;7.43;4.90;;;;;;;;;;5011782;28;20048;-68
2022/12/07 03:52:26;;;;;;;7.30;4.72;;;;;;;;;;5011727;28;20100;-68
2022/12/07 03:54:54;;;;;;;7.85;4.78;;;;;;;;;;5012389;28;20061;-68
2022/12/07 03:57:22;;;;;;;9.13;4.85;;;;;;;;;;5013885;28;20076;-68
2022/12/07 03:59:48;;;;;;;6.82;4.60;;;;;;;;;;5013630;28;20061;-68
2022/12/07 04:02:14;;;;;;;8.60;5.32;;;;;;;;;;5013751;28;20073;-68
2022/12/07 04:04:41;;;;;;;9.05;5.43;;;;;;;;;;5013871;28;20061;-68
2022/12/07 04:07:07;;;;;;;9.93;5.53;;;;;;;;;;5012519;28;20449;-68
2022/12/07 04:09:32;;;;;;;9.38;5.75;;;;;;;;;;5013700;28;20413;-68
2022/12/07 04:11:58;;;;;;;11.18;5.82;;;;;;;;;;5013815;28;20114;-68
2022/12/07 04:14:23;;;;;;;8.88;6.05;;;;;;;;;;5013338;28;20033;-68
2022/12/07 04:16:58;;;;;;;9.68;5.65;;;;;;;;;;5013558;28;20397;-68
2022/12/07 04:19:26;;;;;;;9.35;5.60;;;;;;;;;;5013895;28;20350;-68
2022/12/07 04:21:51;;;;;;;9.10;5.80;;;;;;;;;;5013341;28;20492;-68
2022/12/07 04:24:17;;;;;;;8.82;5.43;;;;;;;;;;5013475;28;20034;-68
2022/12/07 04:26:43;;;;;;;9.75;6.13;;;;;;;;;;5013287;28;20499;-68
2022/12/07 04:29:10;;;;;;;10.45;6.15;;;;;;;;;;5011854;28;20034;-68
2022/12/07 04:31:36;;;;;;;9.30;5.45;;;;;;;;;;5013296;28;20413;-68
2022/12/07 04:34:03;;;;;;;8.63;5.40;;;;;;;;;;5013188;28;20034;-68
2022/12/07 04:36:28;;;;;;;11.93;6.25;;;;;;;;;;5013172;28;20036;-68
2022/12/07 04:38:54;;;;;;;11.73;6.45;;;;;;;;;;5013173;28;20105;-68
2022/12/07 04:41:26;;;;;;;10.10;6.07;;;;;;;;;;5013115;28;20038;-68
2022/12/07 04:43:56;;;;;;;10.18;6.18;;;;;;;;;;5012986;28;20093;-68
2022/12/07 04:46:23;;;;;;;11.65;6.90;;;;;;;;;;5012982;28;20431;-68
2022/12/07 04:48:49;;;;;;;11.00;6.50;;;;;;;;;;5011778;28;20083;-68
2022/12/07 04:51:20;;;;;;;11.23;6.43;;;;;;;;;;5012986;28;20030;-68
2022/12/07 04:53:45;;;;;;;11.88;7.22;;;;;;;;;;5012173;28;20109;-68
2022/12/07 04:56:11;;;;;;;9.90;6.70;;;;;;;;;;4993099;28;20109;-68
2022/12/07 04:58:36;;;;;;;11.95;6.88;;;;;;;;;;4992946;28;20080;-68
2022/12/07 05:01:02;;;;;;;10.57;6.35;;;;;;;;;;4993155;28;20395;-68
2022/12/07 05:03:27;;;;;;;10.88;6.80;;;;;;;;;;4993014;28;20025;-68
2022/12/07 05:05:53;;;;;;;10.95;6.65;;;;;;;;;;4991798;28;20026;-68
2022/12/07 05:08:18;;;;;;;10.93;6.25;;;;;;;;;;4993016;28;20034;-68
2022/12/07 05:10:44;;;;;;;11.45;6.70;;;;;;;;;;4993006;28;20547;-68
2022/12/07 05:13:09;;;;;;;12.57;7.40;;;;;;;;;;4992355;28;20026;-68
2022/12/07 05:15:35;;;;;;;10.60;6.57;;;;;;;;;;4992892;28;20393;-68
2022/12/07 05:18:00;;;;;;;12.70;6.90;;;;;;;;;;4992648;28;20026;-68
2022/12/07 05:20:26;;;;;;;12.35;6.80;;;;;;;;;;4992368;28;20038;-68
2022/12/07 05:22:51;;;;;;;12.25;6.95;;;;;;;;;;4992649;28;20057;-68
2022/12/07 05:25:17;;;;;;;11.85;7.38;;;;;;;;;;4992673;28;20047;-68
2022/12/07 05:27:42;;;;;;;12.23;7.20;;;;;;;;;;4997420;28;20060;-68
2022/12/07 05:30:08;;;;;;;12.15;7.30;;;;;;;;;;5012167;28;20108;-68
2022/12/07 05:32:34;;;;;;;14.15;7.78;;;;;;;;;;5012037;28;20025;-69
2022/12/07 05:34:59;;;;;;;12.13;7.00;;;;;;;;;;5012233;28;20469;-69
2022/12/07 05:37:24;;;;;;;17.30;8.63;;;;;;;;;;5012208;28;20263;-69
2022/12/07 05:39:50;;;;;;;12.50;7.25;;;;;;;;;;5011799;28;20026;-69
2022/12/07 05:42:16;;;;;;;14.77;8.15;;;;;;;;;;5011559;28;20025;-68
2022/12/07 05:44:44;;;;;;;14.18;8.43;;;;;;;;;;5011973;28;20503;-68
2022/12/07 05:47:11;;;;;;;15.82;8.13;;;;;;;;;;5011945;28;20032;-68
2022/12/07 05:49:36;;;;;;;13.60;8.30;;;;;;;;;;5011978;28;20026;-69
2022/12/07 05:52:02;;;;;;;14.43;8.35;;;;;;;;;;5011820;28;20546;-68
2022/12/07 05:54:28;;;;;;;13.60;8.30;;;;;;;;;;5011669;28;20340;-68
2022/12/07 05:56:54;;;;;;;12.93;8.30;;;;;;;;;;5011584;28;20037;-69
2022/12/07 05:59:22;;;;;;;11.20;7.40;;;;;;;;;;5011884;28;20021;-68
2022/12/07 06:01:52;;;;;;;15.02;8.32;;;;;;;;;;5011681;28;20038;-68
2022/12/07 06:04:18;;;;;;;13.85;8.45;;;;;;;;;;5010414;28;20030;-69
2022/12/07 06:06:44;;;;;;;13.82;8.38;;;;;;;;;;5011745;28;20045;-69
2022/12/07 06:09:10;;;;;;;14.68;8.27;;;;;;;;;;5011739;28;20022;-68
2022/12/07 06:14:19;;;;;;;13.35;8.07;;;;;;;;;;5011547;28;20041;-68
2022/12/07 06:16:45;;;;;;;14.25;8.45;;;;;;;;;;5011551;28;20030;-68
2022/12/07 06:19:10;;;;;;;14.98;8.48;;;;;;;;;;5011552;28;20022;-68
2022/12/07 06:21:36;;;;;;;14.90;8.48;;;;;;;;;;5011328;28;20461;-68
2022/12/07 06:24:01;;;;;;;14.32;8.45;;;;;;;;;;5011427;28;20530;-69
2022/12/07 06:26:27;;;;;;;16.40;8.77;;;;;;;;;;5010867;28;20056;-68
2022/12/07 06:28:53;;;;;;;14.25;8.52;;;;;;;;;;5011330;28;20030;-68
2022/12/07 06:31:18;;;;;;;12.98;7.82;;;;;;;;;;5011421;28;20029;-68
2022/12/07 06:33:43;;;;;;;14.63;8.30;;;;;;;;;;5011316;28;20029;-69
2022/12/07 06:36:10;;;;;;;18.58;9.43;;;;;;;;;;5011220;28;20051;-68
2022/12/07 06:38:35;;;;;;;15.50;8.50;;;;;;;;;;5011498;28;20057;-69
2022/12/07 06:41:01;;;;;;;12.65;7.68;;;;;;;;;;5011142;28;20056;-69
2022/12/07 06:43:27;;;;;;;15.15;8.57;;;;;;;;;;5011278;28;20041;-68
2022/12/07 06:45:53;;;;;;;12.35;7.07;;;;;;;;;;5001557;28;20030;-68
2022/12/07 06:48:18;;;;;;;13.25;7.35;;;;;;;;;;4991581;28;20041;-69
2022/12/07 06:50:45;;;;;;;12.05;7.32;;;;;;;;;;4991634;28;20108;-69
2022/12/07 06:53:11;;;;;;;16.00;8.32;;;;;;;;;;4995184;28;20034;-69
2022/12/07 06:55:36;;;;;;;14.60;7.50;;;;;;;;;;4995188;28;20084;-69
2022/12/07 06:58:02;;;;;;;12.80;7.60;;;;;;;;;;4995508;28;20076;-69
2022/12/07 07:00:28;;;;;;;13.57;7.28;;;;;;;;;;4995288;28;20041;-68
2022/12/07 07:02:54;;;;;;;13.20;7.70;;;;;;;;;;4995387;28;20022;-68
2022/12/07 07:05:21;;;;;;;12.30;7.10;;;;;;;;;;4995344;28;20024;-71
2022/12/07 07:07:48;;;;;;;13.82;7.40;;;;;;;;;;4994990;28;20027;-69
2022/12/07 07:10:13;;;;;;;15.13;8.07;;;;;;;;;;4993963;28;20049;-70
2022/12/07 07:12:39;;;;;;;12.48;6.90;;;;;;;;;;4995168;28;20462;-69
2022/12/07 07:15:05;;;;;;;13.20;7.45;;;;;;;;;;4995296;28;20069;-69
2022/12/07 07:17:30;;;;;;;12.50;7.53;;;;;;;;;;4998328;28;20030;-68
2022/12/07 07:19:56;;;;;;;14.43;8.25;;;;;;;;;;5014290;28;20453;-68
2022/12/07 07:22:21;;;;;;;15.77;8.15;;;;;;;;;;5014288;28;20018;-68
2022/12/07 07:24:47;;;;;;;13.95;8.05;;;;;;;;;;5014445;28;20057;-68
2022/12/07 07:27:12;;;;;;;12.52;7.95;;;;;;;;;;5014420;28;20054;-68
2022/12/07 07:29:38;;;;;;;14.25;7.82;;;;;;;;;;5014243;28;20476;-69
2022/12/07 07:32:03;;;;;;;14.73;7.60;;;;;;;;;;5014347;28;20081;-69
2022/12/07 07:34:29;;;;;;;14.52;7.55;;;;;;;;;;5014205;28;20026;-69
2022/12/07 07:36:54;;;;;;;16.13;7.75;;;;;;;;;;5014204;28;20037;-69
2022/12/07 07:39:20;;;;;;;16.25;8.68;;;;;;;;;;5014300;28;20495;-69
2022/12/07 07:41:46;;;;;;;14.48;7.82;;;;;;;;;;5014243;28;20060;-69
2022/12/07 07:44:12;;;;;;;15.32;7.90;;;;;;;;;;5014033;28;20038;-69
2022/12/07 07:46:37;;;;;;;18.25;7.82;;;;;;;;;;5014210;28;20029;-69
2022/12/07 07:49:03;;;;;;;33.90;9.32;;;;;;;;;;5014113;28;20084;-69
2022/12/07 07:51:28;;;;;;;16.98;8.68;;;;;;;;;;5013791;28;20049;-68
2022/12/07 07:53:54;;;;;;;17.83;8.23;;;;;;;;;;5014055;28;20112;-69
2022/12/07 07:56:19;;;;;;;25.05;10.57;;;;;;;;;;5013904;28;20400;-69
2022/12/07 07:58:45;;;;;;;20.02;10.40;;;;;;;;;;5014094;28;20488;-69
2022/12/07 08:01:10;;;;;;;17.92;9.40;;;;;;;;;;5004406;28;20023;-69
2022/12/07 08:03:36;;;;;;;20.30;9.57;;;;;;;;;;4994060;28;20485;-70
2022/12/07 08:06:03;;;;;;;22.90;10.77;;;;;;;;;;4993833;28;20093;-69
2022/12/07 08:08:28;;;;;;;18.40;9.88;;;;;;;;;;4994112;28;20030;-68
2022/12/07 08:10:54;;;;;;;20.23;10.45;;;;;;;;;;4994220;28;20026;-68
2022/12/07 08:13:19;;;;;;;19.10;9.00;;;;;;;;;;4994028;28;20548;-69
2022/12/07 08:15:48;;;;;;;14.63;8.02;;;;;;;;;;4994158;28;20545;-68
2022/12/07 08:18:14;;;;;;;27.17;10.88;;;;;;;;;;4993989;28;20033;-68
2022/12/07 08:20:42;;;;;;;16.52;8.02;;;;;;;;;;4993665;28;20053;-68
2022/12/07 08:23:08;;;;;;;14.18;7.47;;;;;;;;;;4993818;28;20084;-68
2022/12/07 08:25:34;;;;;;;17.48;8.63;;;;;;;;;;4993782;28;20045;-68
2022/12/07 08:28:01;;;;;;;16.10;7.15;;;;;;;;;;5001152;28;20079;-69
2022/12/07 08:30:27;;;;;;;17.65;9.93;;;;;;;;;;5013234;28;20476;-69
2022/12/07 08:32:53;;;;;;;30.08;16.60;;;;;;;;;;5013270;28;20058;-69
2022/12/07 08:35:19;;;;;;;40.78;22.63;;;;;;;;;;5013194;28;20434;-69
2022/12/07 08:37:44;;;;;;;37.92;18.05;;;;;;;;;;4996717;28;20031;-69
2022/12/07 08:40:14;;;;;;;61.55;18.58;;;;;;;;;;4993526;28;20041;-69
2022/12/07 08:42:44;;;;;;;40.00;14.00;;;;;;;;;;5001059;28;20380;-68
2022/12/07 08:45:13;;;;;;;61.40;18.57;;;;;;;;;;4994769;28;20030;-69
2022/12/07 08:48:00;;;;;;;59.17;17.30;;;;;;;;;;4994436;28;20038;-69
2022/12/07 08:50:26;;;;;;;32.97;12.00;;;;;;;;;;4993757;28;20033;-69
2022/12/07 08:52:54;;;;;;;29.73;10.90;;;;;;;;;;4994338;28;20031;-69
2022/12/07 08:55:20;;;;;;;49.47;16.90;;;;;;;;;;4993858;28;20123;-70
2022/12/07 08:57:46;;;;;;;25.90;11.38;;;;;;;;;;4994422;28;20111;-69
2022/12/07 09:00:12;;;;;;;24.33;10.15;;;;;;;;;;4994180;28;20033;-69
2022/12/07 09:02:39;;;;;;;35.13;12.38;;;;;;;;;;4994274;28;20018;-69
2022/12/07 09:05:05;;;;;;;28.73;12.90;;;;;;;;;;4993680;28;20022;-70
2022/12/07 09:07:33;;;;;;;23.38;11.15;;;;;;;;;;4993630;28;20118;-69
2022/12/07 09:09:59;;;;;;;26.85;11.25;;;;;;;;;;4994098;28;20026;-70
2022/12/07 09:12:24;;;;;;;29.40;12.68;;;;;;;;;;4993720;28;20370;-70
2022/12/07 09:14:50;;;;;;;41.33;15.80;;;;;;;;;;4993372;28;20037;-69
2022/12/07 09:17:16;;;;;;;38.45;14.85;;;;;;;;;;4993975;28;20045;-69
2022/12/07 09:19:42;;;;;;;47.40;18.27;;;;;;;;;;4992503;28;20076;-69
2022/12/07 09:22:08;;;;;;;27.00;12.25;;;;;;;;;;4993772;28;20041;-69
2022/12/07 09:24:33;;;;;;;31.60;13.10;;;;;;;;;;4993824;28;20030;-70
2022/12/07 09:26:59;;;;;;;21.48;10.13;;;;;;;;;;4993387;28;20043;-69
2022/12/07 09:29:25;;;;;;;26.42;9.88;;;;;;;;;;5012346;28;20041;-69
2022/12/07 09:31:52;;;;;;;24.98;9.43;;;;;;;;;;5013282;28;20030;-70
2022/12/07 09:34:18;;;;;;;18.55;9.63;;;;;;;;;;5012836;28;20030;-69
2022/12/07 09:36:43;;;;;;;19.58;10.77;;;;;;;;;;5004593;28;20036;-69
2022/12/07 09:39:09;;;;;;;11.00;7.10;;;;;;;;;;4993615;28;20089;-69
2022/12/07 09:41:39;;;;;;;19.38;9.57;;;;;;;;;;4993398;28;20089;-69
2022/12/07 09:44:13;;;;;;;16.88;9.63;;;;;;;;;;4993610;28;20046;-69
2022/12/07 09:46:41;;;;;;;18.08;10.25;;;;;;;;;;4993677;28;20041;-69
2022/12/07 09:49:25;;;;;;;22.75;14.57;;;;;;;;;;4993225;28;20030;-69
2022/12/07 09:52:03;;;;;;;28.63;17.50;;;;;;;;;;4993435;28;20390;-69
2022/12/07 09:54:29;;;;;;;18.92;7.72;;;;;;;;;;4993199;28;20069;-69
2022/12/07 09:56:54;;;;;;;25.45;14.05;;;;;;;;;;4993198;28;20062;-68
2022/12/07 09:59:20;;;;;;;21.58;13.10;;;;;;;;;;4992009;28;20018;-68
2022/12/07 10:01:49;;;;;;;16.92;11.13;;;;;;;;;;5000677;28;20030;-68
2022/12/07 10:04:23;;;;;;;30.92;18.25;;;;;;;;;;5012793;28;20033;-68
2022/12/07 10:06:50;;;;;;;16.90;11.57;;;;;;;;;;5012779;28;20404;-68
2022/12/07 10:09:18;;;;;;;14.75;8.68;;;;;;;;;;5012755;28;20026;-68
2022/12/07 10:12:04;;;;;;;19.88;13.40;;;;;;;;;;5012672;28;20034;-68
2022/12/07 10:14:31;;;;;;;12.75;8.57;;;;;;;;;;5012667;28;20030;-68
2022/12/07 10:16:57;;;;;;;13.05;8.98;;;;;;;;;;5012513;28;20109;-69
2022/12/07 10:19:31;;;;;;;21.15;12.02;;;;;;;;;;5012582;28;20080;-69
2022/12/07 10:22:15;;;;;;;11.82;6.95;;;;;;;;;;5012737;28;20026;-69
2022/12/07 10:24:43;;;;;;;13.90;8.10;;;;;;;;;;5012604;28;20033;-69
2022/12/07 10:27:21;;;;;;;15.32;9.55;;;;;;;;;;5016280;28;20021;-69
2022/12/07 10:29:50;;;;;;;16.48;9.52;;;;;;;;;;5016762;28;20053;-69
2022/12/07 10:32:15;;;;;;;10.35;6.32;;;;;;;;;;4998392;28;20557;-69
2022/12/07 10:34:41;;;;;;;11.02;6.25;;;;;;;;;;4997025;28;20121;-68
2022/12/07 10:37:12;;;;;;;12.50;7.40;;;;;;;;;;4997151;28;20027;-69
2022/12/07 10:39:47;;;;;;;17.48;9.82;;;;;;;;;;4996803;28;20400;-68
2022/12/07 10:42:26;;;;;;;15.02;8.73;;;;;;;;;;4996521;28;20030;-68
2022/12/07 10:45:17;;;;;;;15.38;9.98;;;;;;;;;;4996694;28;20031;-68
2022/12/07 10:47:53;;;;;;;16.42;8.68;;;;;;;;;;5002806;28;20113;-69
2022/12/07 10:50:52;;;;;;;14.60;8.55;;;;;;;;;;5014734;28;20030;-68
2022/12/07 10:53:56;;;;;;;12.52;6.75;;;;;;;;;;4976527;28;20467;-68
2022/12/07 10:56:22;;;;;;;14.50;9.10;;;;;;;;;;4977023;28;20106;-68
2022/12/07 10:58:59;;;;;;;13.75;7.72;;;;;;;;;;4977102;28;20489;-68
2022/12/07 11:01:34;;;;;;;18.02;9.00;;;;;;;;;;4976750;28;20019;-68
2022/12/07 11:04:28;;;;;;;26.95;11.55;;;;;;;;;;4976893;28;20034;-69
2022/12/07 11:07:06;;;;;;;23.40;11.02;;;;;;;;;;4955263;29;20485;-68
2022/12/07 11:10:00;;;;;;;35.72;13.70;;;;;;;;;;4955166;29;20144;-69
2022/12/07 11:12:53;;;;;;;57.58;17.88;;;;;;;;;;4955347;28;20502;-69
2022/12/07 11:15:52;;;;;;;42.22;15.65;;;;;;;;;;4955141;28;20114;-68
2022/12/07 11:18:25;;;;;;;28.52;11.05;;;;;;;;;;4955068;29;20102;-68
2022/12/07 11:21:03;;;;;;;69.57;18.63;;;;;;;;;;4955162;28;20517;-69
2022/12/07 11:23:50;;;;;;;36.80;12.90;;;;;;;;;;4955209;29;20462;-69
2022/12/07 11:26:47;;;;;;;47.20;18.55;;;;;;;;;;4954876;28;20530;-68
2022/12/07 11:29:31;;;;;;;39.63;14.23;;;;;;;;;;4932612;29;20059;-68
2022/12/07 11:32:32;;;;;;;24.30;11.05;;;;;;;;;;4935908;29;20031;-69
2022/12/07 11:34:57;;;;;;;;;;;;;;;;;;4898335;29;20112;-69
2022/12/07 11:37:37;;;;;;;28.20;11.23;;;;;;;;;;4897191;29;19954;-69
2022/12/07 11:40:25;;;;;;;13.75;7.40;;;;;;;;;;4897938;29;20096;-69
2022/12/07 11:42:51;;;;;;;15.98;7.75;;;;;;;;;;4882144;29;20045;-69
2022/12/07 11:45:21;;;;;;;9.48;6.70;;;;;;;;;;4878807;29;20045;-69
2022/12/07 11:47:58;;;;;;;13.13;6.63;;;;;;;;;;4878992;29;20047;-69
2022/12/07 11:50:44;;;;;;;13.73;7.85;;;;;;;;;;4878859;29;20133;-69
2022/12/07 11:53:17;;;;;;;10.10;5.90;;;;;;;;;;4878782;29;20589;-69
2022/12/07 11:56:09;;;;;;;7.70;4.22;;;;;;;;;;4878869;29;20036;-69
2022/12/07 11:58:56;;;;;;;8.30;4.90;;;;;;;;;;4889117;29;20036;-69
2022/12/07 12:01:33;;;;;;;12.07;6.93;;;;;;;;;;4882316;29;20121;-69
2022/12/07 12:04:10;;;;;;;8.70;5.63;;;;;;;;;;4897478;29;20047;-68
2022/12/07 12:06:43;;;;;;;7.95;5.40;;;;;;;;;;4924960;29;20047;-69
2022/12/07 12:09:14;;;;;;;8.57;5.85;;;;;;;;;;4935289;29;20087;-69
2022/12/07 12:11:54;;;;;;;8.63;5.20;;;;;;;;;;4950246;28;20491;-69
2022/12/07 12:14:41;;;;;;;8.07;4.90;;;;;;;;;;4994855;28;20026;-69
2022/12/07 12:17:31;;;;;;;6.07;4.13;;;;;;;;;;4995260;28;20117;-70
2022/12/07 12:20:02;;;;;;;4.75;3.35;;;;;;;;;;4993651;28;20042;-69
2022/12/07 12:22:37;;;;;;;4.20;2.92;;;;;;;;;;4994710;28;20031;-69
2022/12/07 12:25:06;;;;;;;7.57;5.25;;;;;;;;;;4994766;28;20554;-69
2022/12/07 12:27:38;;;;;;;4.30;3.17;;;;;;;;;;4997920;28;20461;-69
2022/12/07 12:30:23;;;;;;;5.63;3.22;;;;;;;;;;5012478;28;20104;-69
2022/12/07 12:32:49;;;;;;;5.85;2.90;;;;;;;;;;4992529;28;20109;-69
2022/12/07 12:35:29;;;;;;;10.10;5.75;;;;;;;;;;4994156;28;20118;-70
2022/12/07 12:37:55;;;;;;;14.32;6.28;;;;;;;;;;4993527;28;20556;-69
2022/12/07 12:40:21;;;;;;;16.45;7.50;;;;;;;;;;4993951;28;20113;-70
2022/12/07 12:42:51;;;;;;;12.02;6.78;;;;;;;;;;4993961;28;20024;-70
2022/12/07 12:45:28;;;;;;;9.82;4.50;;;;;;;;;;4994170;28;20026;-69
2022/12/07 12:47:54;;;;;;;4.82;3.40;;;;;;;;;;4993832;28;20354;-69
2022/12/07 12:50:22;;;;;;;5.70;3.38;;;;;;;;;;4992545;28;20080;-69
2022/12/07 12:52:55;;;;;;;5.03;2.28;;;;;;;;;;4993722;28;20030;-69
2022/12/07 12:55:46;;;;;;;4.82;3.17;;;;;;;;;;4993782;28;20114;-69
2022/12/07 12:58:17;;;;;;;9.32;4.93;;;;;;;;;;4971828;28;20418;-69
2022/12/07 13:00:44;;;;;;;10.73;5.13;;;;;;;;;;4971758;28;20055;-69
2022/12/07 13:03:25;;;;;;;9.73;5.85;;;;;;;;;;4972115;28;20062;-69
2022/12/07 13:06:35;;;;;;;9.38;5.10;;;;;;;;;;4953366;29;20075;-69
2022/12/07 13:09:01;;;;;;;17.48;7.88;;;;;;;;;;4953181;28;20036;-69
2022/12/07 13:11:36;;;;;;;11.63;5.72;;;;;;;;;;4952630;29;20031;-69
2022/12/07 13:14:40;;;;;;;14.90;7.38;;;;;;;;;;4953256;28;20422;-70
2022/12/07 13:17:30;;;;;;;6.82;4.20;;;;;;;;;;4896153;29;20041;-69
2022/12/07 13:19:56;;;;;;;24.58;8.93;;;;;;;;;;4896045;29;20142;-70
2022/12/07 13:22:30;;;;;;;18.75;9.23;;;;;;;;;;4895645;29;20040;-69
2022/12/07 13:25:10;;;;;;;13.25;7.05;;;;;;;;;;4895234;29;20064;-69
2022/12/07 13:27:39;;;;;;;20.67;8.55;;;;;;;;;;4903648;29;20438;-69
2022/12/07 13:30:15;;;;;;;11.95;4.97;;;;;;;;;;4905071;29;20119;-69
2022/12/07 13:32:41;;;;;;;15.13;7.82;;;;;;;;;;4895722;29;20168;-69
2022/12/07 13:35:28;;;;;;;20.73;9.77;;;;;;;;;;4912101;29;20127;-69
2022/12/07 13:37:53;;;;;;;14.68;7.97;;;;;;;;;;4917807;29;20040;-69
2022/12/07 13:40:22;;;;;;;9.52;3.47;;;;;;;;;;4933226;29;20038;-69
2022/12/07 13:42:47;;;;;;;6.22;3.65;;;;;;;;;;4933469;29;20103;-69
2022/12/07 13:45:48;;;;;;;5.85;2.60;;;;;;;;;;4933488;29;20545;-69
2022/12/07 13:48:28;;;;;;;;;;;;;;;;;;4933968;29;20131;-69
2022/12/07 13:50:57;;;;;;;11.77;3.95;;;;;;;;;;4951403;28;19914;-70
2022/12/07 13:53:23;;;;;;;15.60;4.82;;;;;;;;;;4972646;28;20035;-69
2022/12/07 13:55:49;;;;;;;12.10;4.40;;;;;;;;;;4973792;28;20041;-70
2022/12/07 13:58:15;;;;;;;14.57;4.43;;;;;;;;;;4973678;28;20022;-70
2022/12/07 14:00:42;;;;;;;6.80;3.63;;;;;;;;;;4973482;28;20034;-70
2022/12/07 14:03:13;;;;;;;25.67;9.40;;;;;;;;;;4974030;28;20046;-70
2022/12/07 14:05:44;;;;;;;13.40;7.32;;;;;;;;;;4973632;28;20031;-70
2022/12/07 14:08:09;;;;;;;;;;;;;;;;;;4974315;28;20499;-70
2022/12/07 14:10:54;;;;;;;19.85;6.65;;;;;;;;;;4988176;28;19910;-70
2022/12/07 14:13:28;;;;;;;10.27;3.92;;;;;;;;;;4993061;28;20041;-70
2022/12/07 14:15:54;;;;;;;16.08;5.32;;;;;;;;;;4993038;28;20109;-69
2022/12/07 14:18:35;;;;;;;20.35;8.20;;;;;;;;;;4992920;28;20105;-70
2022/12/07 14:21:10;;;;;;;11.85;5.38;;;;;;;;;;4992726;28;20030;-70
2022/12/07 14:23:37;;;;;;;5.03;2.75;;;;;;;;;;4991428;28;20026;-69
2022/12/07 14:26:14;;;;;;;6.50;3.33;;;;;;;;;;4992887;28;20042;-70
2022/12/07 14:28:41;;;;;;;11.95;5.13;;;;;;;;;;5005706;28;20112;-69
2022/12/07 14:31:33;;;;;;;9.10;4.03;;;;;;;;;;5012254;28;20026;-70
2022/12/07 14:33:59;;;;;;;5.43;3.17;;;;;;;;;;5010288;28;20131;-70
2022/12/07 14:36:25;;;;;;;2.53;2.10;;;;;;;;;;5012186;28;20034;-69
2022/12/07 14:38:53;;;;;;;6.50;3.53;;;;;;;;;;4993696;28;20037;-70
2022/12/07 14:44:12;;;;;;;6.47;3.00;;;;;;;;;;4992830;28;20491;-70
2022/12/07 14:46:37;;;;;;;5.93;3.60;;;;;;;;;;4992849;28;20026;-70
2022/12/07 14:49:03;;;;;;;5.65;3.03;;;;;;;;;;4991341;28;20053;-69
2022/12/07 14:51:28;;;;;;;14.70;5.25;;;;;;;;;;4992486;28;20026;-69
2022/12/07 14:53:54;;;;;;;21.88;7.97;;;;;;;;;;4992339;28;20377;-69
2022/12/07 14:56:20;;;;;;;14.93;6.35;;;;;;;;;;4992418;28;20031;-69
2022/12/07 14:58:47;;;;;;;25.98;8.52;;;;;;;;;;4992637;28;20049;-69
2022/12/07 15:01:14;;;;;;;33.67;9.55;;;;;;;;;;4992129;28;20401;-69